Anton, CO

12:13 PM MDT on October 30, 2014 (GMT -0600)
Cope, Colorado | Change Station
CLOSE
Current Station
Personal Weather Station
Location: Cope, CO
Elevation: 4423 ft
Nearby Weather Stations

Elev 4423 ft 39.67 °N, 102.85 °W | Updated 13 minutes ago

Clear
Clear
59.4 °F
Feels Like 59.4 °F
N
6.8
Wind Variable Wind from NW

Today
High -- | Low -- °F
--% Chance of Precip.
Yesterday
High -- | Low -- °F
Precip. -- in
7:19 AM 5:53 PM
Waxing Crescent, 46% visible
Pressure 30.32 in
Visibility 10.0 miles
Clouds Clear
Dew Point 30 °F
Humidity 32%
Rainfall 0.00 in
Snow Depth Not available.
UV 4 out of 12
Pollen 1.60 out of 12
Air Quality Not available.
Flu Activity Not available.
METAR KAKO 301753Z AUTO 33009KT 10SM CLR 14/M02 A3036 RMK AO2 SLP267 T01391022 10139 20011 50004

More Conditions Fewer Conditions

Pressure 30.32 in
Visibility 10.0 miles
Clouds Clear
Dew Point 30 °F
Humidity 32%
Rainfall 0.00 in
Snow Depth Not available.
UV 4 out of 12
Pollen 1.60 out of 12
Air Quality Not available.
Flu Activity Not available.
METAR KAKO 301753Z AUTO 33009KT 10SM CLR 14/M02 A3036 RMK AO2 SLP267 T01391022 10139 20011 50004

More Conditions Fewer Conditions

10-Day Weather Forecast

Almanac

Astronomy

Oct. 30, 2014 Rise Set
Actual Time
Civil Twilight
Nautical Twilight
Astronomical Twilight
Moon
Length of Visible Light
Length of Day
Tomorrow will be .
, % of the Moon is Illuminated

Today's Extremes

State Highs State Lows

Community

WunderPhotos

Upload Photos

1,766,417 photos uploaded!

WunderBlogs® & News

Nearby

Air Quality

  Air Quality AQ Index Pollutant
Not available.

Snow Depth

Station Depth Elevation

Earthquake Activity

City Distance Mag. Time & Date
Minimum magnitude displayed is 2.5.

Coastal Water Temperatures

Place Temperature

Nearby Weather Stations